SAVC Airport Information

Runway Information
Runway 7 Length 9219 ft width 164 ft
Elevation 189 ft Threshold 0 ft Heading 79
Runway 25 Length 9219 ft Width 164 ft
Elevation 105 ft Threshold 0 ft Heading 259
Airport Frequencies
Type ARR Name COMODORO C Frequency 124.3 MHZ
Type TWR Name COMODORO T Frequency 119.9 MHZ
Airport Navaids
Type NDB Name Comodoro Rivadavia Frequency 280 KHZ
Type VOR-DME Name Comodoro Rivadavia Frequency 117500 KHZ
Type NDB Name Comodoro Rivadavia Frequency 260 KHZ
Airport Weather Information & NOTAM
ADDS - METARS form results

(0113 UTC 26 February 2018)
 
METAR text: SAVC 260100Z 29006KT 9999 FEW045 SCT100 25/13 Q1011
Conditions at: SAVC (COMODORO RIVADAV, AR) observed 0100 UTC 26 February 2018
Temperature: 25.0°C (77°F)
Dewpoint: 13.0°C (55°F) [RH = 47%]
Pressure (altimeter): 29.85 inches Hg (1011.0 mb)
Winds: from the WNW (290 degrees) at 7 MPH (6 knots; 3.1 m/s)
Visibility: 6 or more miles (10+ km)
Ceiling: at least 12,000 feet AGL
Clouds: few clouds at 4500 feet AGL
scattered clouds at 10000 feet AGL
Weather: no significant weather observed at this time